Terminal Aerodrome Forecast
Issued by NWS Tallahassee, FL

Home | Current Version | Previous Version | Text Only | Print | Product List | Glossary On
Versions: 1 2 3 4 5 6 7 8 9 10 11 12 13
000
FTUS42 KTAE 211725
TAFTLH
TAF
KTLH 211725Z 2118/2218 09006KT P6SM VCSH BKN050
     FM211900 11005KT P6SM -RA BKN030
     FM220600 02003KT P6SM OVC015
     FM220900 00000KT 3SM BR OVC010
     FM221400 03006KT P6SM BKN015=

USA.gov is the U.S. government's official web portal to all federal, state and local government web resources and services.